Time;durP1;ratioP1;P1;durP2;ratioP2;P2;SDS_P1;SDS_P2;PMS_P1;PMS_P2;Temp;Humidity;BMP_temperature;BMP_pressure;BME280_temperature;BME280_humidity;BME280_pressure;Samples;Min_cycle;Max_cycle;Signal;HPM_P1;HPM_P2
2023/08/17 00:01:54;;;;;;;6.00;4.55;;;18.20;99.90;;;;;;5179087;28;20051;-71
2023/08/17 00:04:27;;;;;;;5.40;4.60;;;18.20;99.90;;;;;;5197229;28;20060;-71
2023/08/17 00:07:03;;;;;;;7.47;4.90;;;18.10;99.90;;;;;;5197981;28;20048;-71
2023/08/17 00:09:35;;;;;;;5.95;4.70;;;18.10;99.90;;;;;;5218781;28;20041;-73
2023/08/17 00:12:07;;;;;;;5.30;3.92;;;18.10;99.90;;;;;;5198790;28;20055;-71
2023/08/17 00:14:42;;;;;;;5.05;4.43;;;18.10;99.90;;;;;;5203150;28;20044;-74
2023/08/17 00:17:17;;;;;;;6.40;4.97;;;18.10;99.90;;;;;;5232064;28;20044;-71
2023/08/17 00:19:51;;;;;;;9.55;4.82;;;18.10;99.90;;;;;;5203607;28;20041;-71
2023/08/17 00:22:27;;;;;;;5.38;4.43;;;18.00;99.90;;;;;;5199906;28;20037;-71
2023/08/17 00:25:03;;;;;;;5.45;4.90;;;17.90;99.90;;;;;;5211714;28;20055;-71
2023/08/17 00:27:34;;;;;;;5.47;4.03;;;17.80;99.90;;;;;;5194893;28;20051;-70
2023/08/17 00:30:07;;;;;;;8.02;4.60;;;17.90;99.90;;;;;;5215377;28;20041;-70
2023/08/17 00:32:41;;;;;;;5.00;4.50;;;17.90;99.90;;;;;;5202304;28;20071;-70
2023/08/17 00:35:13;;;;;;;6.88;5.28;;;17.90;99.90;;;;;;5230892;28;20045;-71
2023/08/17 00:37:48;;;;;;;5.35;4.53;;;17.90;99.90;;;;;;5182579;28;20063;-72
2023/08/17 00:40:22;;;;;;;5.43;4.78;;;17.90;99.90;;;;;;5191072;28;20091;-71
2023/08/17 00:42:56;;;;;;;5.82;4.60;;;17.90;99.90;;;;;;5213785;28;20598;-70
2023/08/17 00:45:30;;;;;;;6.38;4.88;;;17.90;99.90;;;;;;5223190;28;20479;-72
2023/08/17 00:48:05;;;;;;;;;;;17.90;99.90;;;;;;5201690;28;20048;-72
2023/08/17 00:50:42;;;;;;;5.95;5.28;;;17.80;99.90;;;;;;5213741;28;20202;-71
2023/08/17 00:53:16;;;;;;;6.55;4.45;;;17.70;99.90;;;;;;5220204;28;20066;-71
2023/08/17 00:55:52;;;;;;;5.32;4.72;;;17.70;99.90;;;;;;5216522;28;20087;-71
2023/08/17 00:58:29;;;;;;;6.43;4.40;;;17.80;99.90;;;;;;5183626;28;20483;-71
2023/08/17 01:01:03;;;;;;;6.53;4.85;;;17.80;99.90;;;;;;5281521;22;20036;-67
2023/08/17 01:03:35;;;;;;;5.43;4.60;;;17.70;99.90;;;;;;5173389;28;20042;-64
2023/08/17 01:06:10;;;;;;;7.60;5.55;;;17.60;99.90;;;;;;5155944;28;20033;-66
2023/08/17 01:08:47;;;;;;;5.97;4.78;;;17.60;99.90;;;;;;5185427;28;20056;-67
2023/08/17 01:11:36;;;;;;;6.70;5.03;;;17.60;99.90;;;;;;5177687;28;20244;-62
2023/08/17 01:14:31;;;;;;;7.75;5.22;;;17.60;99.90;;;;;;5175525;28;20050;-62
2023/08/17 01:17:22;;;;;;;7.32;4.53;;;17.50;99.90;;;;;;5160403;28;20053;-66
2023/08/17 01:19:56;;;;;;;6.35;5.13;;;17.40;99.90;;;;;;5160402;28;20041;-65
2023/08/17 01:22:30;;;;;;;7.85;4.80;;;17.40;99.90;;;;;;5174754;28;20329;-64
2023/08/17 01:25:03;;;;;;;6.13;4.57;;;17.30;99.90;;;;;;5195073;28;20049;-64
2023/08/17 01:27:40;;;;;;;6.93;5.47;;;17.30;99.90;;;;;;5160453;28;20050;-65
2023/08/17 01:30:16;;;;;;;6.90;5.60;;;17.40;99.90;;;;;;5194497;28;20049;-64
2023/08/17 01:32:58;;;;;;;5.95;5.20;;;17.40;99.90;;;;;;5159334;28;20052;-66
2023/08/17 01:35:59;;;;;;;7.35;5.03;;;17.50;99.90;;;;;;5150504;28;20045;-64
2023/08/17 01:38:35;;;;;;;5.43;4.53;;;17.40;99.90;;;;;;5166515;28;20325;-63
2023/08/17 01:41:15;;;;;;;8.57;5.97;;;17.40;99.90;;;;;;5196846;28;20049;-64
2023/08/17 01:43:48;;;;;;;9.23;6.40;;;17.40;99.90;;;;;;5184377;28;20459;-64
2023/08/17 01:46:29;;;;;;;7.05;5.53;;;17.40;99.90;;;;;;5180193;28;20048;-65
2023/08/17 01:49:01;;;;;;;8.93;6.20;;;17.40;99.90;;;;;;5192109;28;20116;-65
2023/08/17 01:51:33;;;;;;;7.50;6.05;;;17.40;99.90;;;;;;5176106;28;20373;-65
2023/08/17 01:54:12;;;;;;;9.18;6.68;;;17.40;99.90;;;;;;5159496;28;20054;-67
2023/08/17 01:56:44;;;;;;;9.15;6.43;;;17.40;99.90;;;;;;5178669;28;20056;-64
2023/08/17 01:59:16;;;;;;;8.45;6.57;;;17.50;99.90;;;;;;5153677;28;20042;-65
2023/08/17 02:02:00;;;;;;;7.97;6.47;;;17.40;99.90;;;;;;5200504;28;20052;-66
2023/08/17 02:04:34;;;;;;;7.57;5.88;;;17.40;99.90;;;;;;5163924;28;20041;-64
2023/08/17 02:07:10;;;;;;;9.70;6.35;;;17.40;99.90;;;;;;5177738;28;20041;-64
2023/08/17 02:09:44;;;;;;;9.07;6.63;;;17.40;99.90;;;;;;5159043;28;20046;-65
2023/08/17 02:12:16;;;;;;;7.50;6.13;;;17.40;99.90;;;;;;5162200;28;20469;-62
2023/08/17 02:14:48;;;;;;;9.10;6.25;;;17.40;99.90;;;;;;5177104;28;20034;-65
2023/08/17 02:17:28;;;;;;;8.80;5.72;;;17.50;99.90;;;;;;5194015;28;20052;-66
2023/08/17 02:20:00;;;;;;;7.35;5.80;;;17.50;99.90;;;;;;5145971;28;20060;-64
2023/08/17 02:22:34;;;;;;;7.07;6.10;;;17.50;99.90;;;;;;5163408;28;20045;-66
2023/08/17 02:25:09;;;;;;;6.32;5.70;;;17.50;99.90;;;;;;5197147;28;20116;-64
2023/08/17 02:27:43;;;;;;;6.40;5.60;;;17.50;99.90;;;;;;5194453;28;20042;-65
2023/08/17 02:30:14;;;;;;;7.43;6.50;;;17.50;99.90;;;;;;5143274;28;20274;-63
2023/08/17 02:32:46;;;;;;;9.77;5.85;;;17.40;99.90;;;;;;5180887;28;20060;-64
2023/08/17 02:35:19;;;;;;;7.60;5.88;;;17.30;99.90;;;;;;5158817;28;20049;-67
2023/08/17 02:37:53;;;;;;;9.38;6.88;;;17.30;99.90;;;;;;5151185;28;20071;-63
2023/08/17 02:40:27;;;;;;;8.35;5.95;;;17.30;99.90;;;;;;5165627;28;20040;-66
2023/08/17 02:43:01;;;;;;;9.50;6.65;;;17.20;99.90;;;;;;5177755;28;20041;-65
2023/08/17 02:45:37;;;;;;;8.85;6.32;;;17.30;99.90;;;;;;5191117;28;20036;-62
2023/08/17 02:48:09;;;;;;;9.35;6.70;;;17.30;99.90;;;;;;5160742;28;20038;-67
2023/08/17 02:50:44;;;;;;;9.27;6.82;;;17.20;99.90;;;;;;5150766;28;20056;-65
2023/08/17 02:53:15;;;;;;;7.47;6.72;;;17.30;99.90;;;;;;5176618;28;20045;-65
2023/08/17 02:55:49;;;;;;;7.43;6.40;;;17.30;99.90;;;;;;5166490;28;20056;-65
2023/08/17 02:58:26;;;;;;;8.43;5.82;;;17.20;99.90;;;;;;5158335;28;20042;-65
2023/08/17 03:01:01;;;;;;;10.70;6.15;;;17.30;99.90;;;;;;5164052;28;20378;-66
2023/08/17 03:03:36;;;;;;;8.07;6.30;;;17.30;99.90;;;;;;5159553;28;20054;-66
2023/08/17 03:06:11;;;;;;;8.25;6.28;;;17.30;99.90;;;;;;5167413;28;20109;-65
2023/08/17 03:08:52;;;;;;;11.15;6.15;;;17.30;99.90;;;;;;5182787;28;20052;-65
2023/08/17 03:11:25;;;;;;;7.55;5.65;;;17.30;99.90;;;;;;5194595;28;20060;-61
2023/08/17 03:14:00;;;;;;;10.77;6.10;;;17.30;99.90;;;;;;5155912;28;20049;-62
2023/08/17 03:16:34;;;;;;;7.13;5.80;;;17.20;99.90;;;;;;5181337;28;20038;-67
2023/08/17 03:19:10;;;;;;;7.18;5.43;;;17.20;99.90;;;;;;5179597;28;20215;-66
2023/08/17 03:21:43;;;;;;;7.95;6.35;;;17.20;99.90;;;;;;5166662;28;20048;-63
2023/08/17 03:24:20;;;;;;;7.35;6.55;;;17.10;99.90;;;;;;5149005;28;20048;-65
2023/08/17 03:26:53;;;;;;;7.95;6.47;;;17.00;99.90;;;;;;5181333;28;20034;-68
2023/08/17 03:29:27;;;;;;;8.65;6.30;;;17.00;99.90;;;;;;5181756;28;20033;-65
2023/08/17 03:31:58;;;;;;;11.27;6.80;;;17.00;99.90;;;;;;5177952;28;20449;-66
2023/08/17 03:34:34;;;;;;;9.00;6.32;;;16.90;99.90;;;;;;5183562;28;20530;-63
2023/08/17 03:37:05;;;;;;;8.68;6.22;;;17.00;99.90;;;;;;5173963;28;20065;-66
2023/08/17 03:39:45;;;;;;;8.32;6.30;;;17.00;99.90;;;;;;5182134;28;20425;-67
2023/08/17 03:42:19;;;;;;;8.93;7.03;;;17.00;99.90;;;;;;5160867;28;20042;-68
2023/08/17 03:44:54;;;;;;;7.82;6.57;;;17.00;99.90;;;;;;5145737;28;21281;-65
2023/08/17 03:47:27;;;;;;;8.00;6.13;;;17.10;99.90;;;;;;5159777;28;20048;-63
2023/08/17 03:50:00;;;;;;;8.55;6.50;;;17.00;99.90;;;;;;5160727;28;20033;-59
2023/08/17 03:52:35;;;;;;;9.63;7.03;;;17.00;99.90;;;;;;5162327;28;20045;-66
2023/08/17 03:55:09;;;;;;;7.25;5.85;;;16.90;99.90;;;;;;5145731;28;20041;-66
2023/08/17 03:57:41;;;;;;;;;;;16.90;99.90;;;;;;5175595;28;20235;-66
2023/08/17 04:00:19;;;;;;;8.55;6.50;;;16.90;99.90;;;;;;5177284;28;19919;-66
2023/08/17 04:02:51;;;;;;;7.70;6.05;;;16.80;99.90;;;;;;5145217;28;20048;-62
2023/08/17 04:05:23;;;;;;;7.88;6.22;;;16.90;99.90;;;;;;5156931;28;20372;-65
2023/08/17 04:08:04;;;;;;;7.32;5.68;;;16.80;99.90;;;;;;5176097;28;20029;-64
2023/08/17 04:10:45;;;;;;;6.65;5.43;;;16.80;99.90;;;;;;5146164;28;20048;-66
2023/08/17 04:13:20;;;;;;;8.18;7.05;;;16.80;99.90;;;;;;5141341;28;20049;-68
2023/08/17 04:15:52;;;;;;;10.05;7.45;;;16.90;99.90;;;;;;5170067;28;20058;-66
2023/08/17 04:18:24;;;;;;;9.38;6.57;;;17.00;99.90;;;;;;5125784;28;20053;-67
2023/08/17 04:20:58;;;;;;;8.05;6.10;;;17.00;99.90;;;;;;5161334;28;20053;-65
2023/08/17 04:23:29;;;;;;;8.85;6.40;;;17.00;99.90;;;;;;5165235;28;20038;-65
2023/08/17 04:26:01;;;;;;;9.82;6.75;;;17.10;99.90;;;;;;5162657;28;20049;-64
2023/08/17 04:28:35;;;;;;;7.88;6.55;;;17.20;99.90;;;;;;5144513;28;20084;-69
2023/08/17 04:31:10;;;;;;;6.97;5.63;;;17.20;99.90;;;;;;5175126;28;20052;-63
2023/08/17 04:33:43;;;;;;;14.10;6.90;;;17.20;99.90;;;;;;5155925;28;20046;-63
2023/08/17 04:36:15;;;;;;;9.43;7.32;;;17.30;99.90;;;;;;5170131;28;20041;-65
2023/08/17 04:38:49;;;;;;;8.13;6.50;;;17.50;99.90;;;;;;5166138;28;20041;-67
2023/08/17 04:41:24;;;;;;;8.90;6.78;;;17.60;99.90;;;;;;5160466;28;20262;-68
2023/08/17 04:43:58;;;;;;;12.27;6.90;;;17.70;99.90;;;;;;5160327;28;20050;-64
2023/08/17 04:46:29;;;;;;;9.82;7.43;;;17.70;99.90;;;;;;5142204;28;20052;-68
2023/08/17 04:49:04;;;;;;;12.50;7.05;;;18.10;99.90;;;;;;5180394;28;20054;-65
2023/08/17 04:51:38;;;;;;;;;;;18.20;99.90;;;;;;5161519;28;20050;-65
2023/08/17 04:54:12;;;;;;;9.35;7.15;;;18.50;99.90;;;;;;5172621;28;19960;-65
2023/08/17 04:56:43;;;;;;;7.72;6.05;;;18.90;99.90;;;;;;5176798;28;20037;-64
2023/08/17 04:59:18;;;;;;;7.30;5.75;;;19.20;99.90;;;;;;5168100;28;20562;-65
2023/08/17 05:01:54;;;;;;;8.57;6.40;;;19.50;99.90;;;;;;5142733;28;20334;-65
2023/08/17 05:04:25;;;;;;;7.75;6.22;;;19.80;99.90;;;;;;5156749;28;20046;-65
2023/08/17 05:07:02;;;;;;;6.72;5.75;;;20.00;99.90;;;;;;5150529;28;20049;-67
2023/08/17 05:09:40;;;;;;;7.55;6.13;;;20.10;99.90;;;;;;5161520;28;20041;-64
2023/08/17 05:12:14;;;;;;;8.75;5.50;;;20.10;99.90;;;;;;5163734;28;20053;-64
2023/08/17 05:14:46;;;;;;;6.28;5.55;;;20.40;79.10;;;;;;5178955;28;20048;-65
2023/08/17 05:17:23;;;;;;;8.80;5.38;;;20.70;1.00;;;;;;5159362;28;20029;-64
2023/08/17 05:19:58;;;;;;;8.65;5.85;;;21.00;1.00;;;;;;5161170;28;20057;-65
2023/08/17 05:22:32;;;;;;;5.47;4.80;;;21.30;1.00;;;;;;5159295;28;20049;-66
2023/08/17 05:25:07;;;;;;;8.23;5.72;;;21.60;1.00;;;;;;5174809;28;20065;-65
2023/08/17 05:27:39;;;;;;;6.93;5.50;;;22.00;1.00;;;;;;5164169;28;20056;-66
2023/08/17 05:30:13;;;;;;;8.30;5.68;;;22.40;1.00;;;;;;5175405;28;20050;-65
2023/08/17 05:32:47;;;;;;;9.68;6.18;;;22.60;1.00;;;;;;5155821;28;20385;-64
2023/08/17 05:35:21;;;;;;;8.60;5.80;;;22.80;1.00;;;;;;5141621;28;20048;-66
2023/08/17 05:37:58;;;;;;;7.35;6.28;;;23.10;99.90;;;;;;5164087;28;20048;-67
2023/08/17 05:40:35;;;;;;;10.52;5.55;;;23.30;99.90;;;;;;5163815;28;20042;-64
2023/08/17 05:43:11;;;;;;;7.30;5.85;;;23.50;99.90;;;;;;5187379;28;20080;-67
2023/08/17 05:45:45;;;;;;;8.30;6.18;;;23.60;96.00;;;;;;5176828;28;20049;-67
2023/08/17 05:48:23;;;;;;;8.32;6.20;;;23.50;1.00;;;;;;5159596;28;20384;-66
2023/08/17 05:50:56;;;;;;;8.93;5.72;;;23.20;99.90;;;;;;5174198;28;20080;-64
2023/08/17 05:53:28;;;;;;;10.23;5.97;;;23.10;99.90;;;;;;5160012;28;20041;-68
2023/08/17 05:55:59;;;;;;;7.20;6.07;;;23.20;99.90;;;;;;5172895;28;20046;-66
2023/08/17 05:58:31;;;;;;;7.25;5.40;;;23.30;99.90;;;;;;5148188;28;20050;-67
2023/08/17 06:01:12;;;;;;;7.25;5.82;;;23.50;99.90;;;;;;5160140;28;20050;-62
2023/08/17 06:03:47;;;;;;;7.03;5.45;;;23.80;99.90;;;;;;5177176;28;20117;-68
2023/08/17 06:06:21;;;;;;;9.45;6.78;;;24.20;88.50;;;;;;5163444;28;20044;-65
2023/08/17 06:09:00;;;;;;;;;;;24.50;1.00;;;;;;5162064;28;20045;-68
2023/08/17 06:11:32;;;;;;;9.38;6.45;;;25.00;1.00;;;;;;5171825;28;20236;-67
2023/08/17 06:14:04;;;;;;;6.50;5.82;;;25.20;99.90;;;;;;5165163;28;20046;-64
2023/08/17 06:16:36;;;;;;;7.95;6.20;;;25.40;99.90;;;;;;5161885;28;20037;-67
2023/08/17 06:19:07;;;;;;;7.35;5.75;;;25.10;99.90;;;;;;5164877;28;20053;-64
2023/08/17 06:21:39;;;;;;;7.68;5.60;;;25.20;99.90;;;;;;5178593;28;21472;-66
2023/08/17 06:24:14;;;;;;;8.68;5.20;;;25.10;99.90;;;;;;5181930;28;20228;-65
2023/08/17 06:26:45;;;;;;;10.80;5.38;;;25.40;99.90;;;;;;5181142;28;20511;-62
2023/08/17 06:29:19;;;;;;;5.85;5.25;;;25.50;99.90;;;;;;5168627;28;20595;-66
2023/08/17 06:31:51;;;;;;;;;;;25.50;57.40;;;;;;5142813;28;20069;-65
2023/08/17 06:34:25;;;;;;;6.18;5.05;;;25.10;99.90;;;;;;5164780;28;19928;-64
2023/08/17 06:37:01;;;;;;;7.85;4.85;;;25.20;99.90;;;;;;5167626;28;20044;-65
2023/08/17 06:39:35;;;;;;;7.38;5.47;;;25.40;99.90;;;;;;5164480;28;20064;-66
2023/08/17 06:42:12;;;;;;;7.40;5.63;;;25.30;99.90;;;;;;5149009;28;20054;-66
2023/08/17 06:44:46;;;;;;;7.57;5.78;;;25.30;99.90;;;;;;5149181;28;20036;-67
2023/08/17 06:47:18;;;;;;;7.70;6.10;;;25.20;99.90;;;;;;5145041;28;20048;-64
2023/08/17 06:49:49;;;;;;;8.38;5.90;;;24.90;99.90;;;;;;5151052;28;20033;-62
2023/08/17 06:52:21;;;;;;;6.70;5.38;;;25.00;1.00;;;;;;5190824;28;20037;-65
2023/08/17 06:54:55;;;;;;;8.13;5.45;;;25.60;99.90;;;;;;5194749;28;20034;-64
2023/08/17 06:57:29;;;;;;;;;;;26.20;99.90;;;;;;5146348;28;20048;-67
2023/08/17 07:00:00;;;;;;;6.88;5.10;;;26.50;38.20;;;;;;5145241;28;19922;-64
2023/08/17 07:02:32;;;;;;;7.82;5.50;;;26.60;1.00;;;;;;5142943;28;20342;-65
2023/08/17 07:05:13;;;;;;;10.68;5.90;;;26.90;1.00;;;;;;5162370;28;20079;-69
2023/08/17 07:07:46;;;;;;;6.53;5.07;;;27.20;94.40;;;;;;5191094;28;20029;-64
2023/08/17 07:10:20;;;;;;;7.05;5.68;;;27.10;1.00;;;;;;5162030;28;20034;-63
2023/08/17 07:12:54;;;;;;;;;;;27.00;39.10;;;;;;5160557;28;20064;-66
2023/08/17 07:15:28;;;;;;;5.43;4.88;;;27.30;1.00;;;;;;5146361;28;20441;-63
2023/08/17 07:18:02;;;;;;;6.95;4.78;;;27.30;1.00;;;;;;5147492;28;20037;-64
2023/08/17 07:20:33;;;;;;;;;;;27.60;1.00;;;;;;5163659;28;20044;-63
2023/08/17 07:23:07;;;;;;;7.82;5.85;;;27.60;99.90;;;;;;5179434;28;20079;-66
2023/08/17 07:25:38;;;;;;;6.40;5.18;;;27.40;99.90;;;;;;5131587;28;20140;-63
2023/08/17 07:28:10;;;;;;;6.47;5.13;;;27.40;99.90;;;;;;5144968;28;20041;-64
2023/08/17 07:30:42;;;;;;;6.00;4.60;;;27.60;99.90;;;;;;5144041;28;20029;-63
2023/08/17 07:33:19;;;;;;;8.15;5.70;;;27.40;99.90;;;;;;5179423;28;20040;-60
2023/08/17 07:35:55;;;;;;;5.47;4.88;;;27.80;99.90;;;;;;5158999;28;20030;-67
2023/08/17 07:38:29;;;;;;;5.95;4.70;;;28.00;99.90;;;;;;5147268;28;20521;-64
2023/08/17 07:41:01;;;;;;;5.78;4.40;;;28.00;99.90;;;;;;5147063;28;20339;-64
2023/08/17 07:43:32;;;;;;;8.30;5.05;;;27.90;1.00;;;;;;5146682;28;20053;-63
2023/08/17 07:46:04;;;;;;;7.78;5.38;;;28.30;1.00;;;;;;5160283;28;20044;-67
2023/08/17 07:48:35;;;;;;;7.10;5.82;;;28.50;99.90;;;;;;5146891;28;20041;-60
2023/08/17 07:51:07;;;;;;;9.52;5.63;;;28.80;1.00;;;;;;5176489;28;20037;-60
2023/08/17 07:53:42;;;;;;;7.03;5.60;;;28.60;1.00;;;;;;5146574;28;20048;-64
2023/08/17 07:56:17;;;;;;;6.50;4.38;;;28.70;99.90;;;;;;5152923;28;20046;-64
2023/08/17 07:58:49;;;;;;;7.13;4.53;;;28.80;99.90;;;;;;5161849;28;20033;-64
2023/08/17 08:01:21;;;;;;;6.53;4.88;;;28.80;1.00;;;;;;5169349;28;20057;-64
2023/08/17 08:03:55;;;;;;;5.57;3.92;;;28.70;99.90;;;;;;5167678;28;20042;-61
2023/08/17 08:06:28;;;;;;;5.07;4.32;;;29.00;99.90;;;;;;5186147;28;20033;-63
2023/08/17 08:09:00;;;;;;;6.55;4.07;;;29.30;99.90;;;;;;5141190;28;20203;-64
2023/08/17 08:11:32;;;;;;;5.28;4.35;;;29.50;99.90;;;;;;5161383;28;20029;-64
2023/08/17 08:14:10;;;;;;;4.53;4.13;;;29.00;99.90;;;;;;5182967;28;20459;-65
2023/08/17 08:16:41;;;;;;;5.13;4.15;;;28.40;1.00;;;;;;5191521;28;20411;-64
2023/08/17 08:19:17;;;;;;;5.22;4.43;;;27.90;1.00;;;;;;5180065;28;20044;-63
2023/08/17 08:21:49;;;;;;;5.80;4.50;;;27.90;1.00;;;;;;5182978;28;20037;-61
2023/08/17 08:24:21;;;;;;;8.05;4.13;;;27.80;1.00;;;;;;5186013;28;20034;-64
2023/08/17 08:26:54;;;;;;;6.40;4.30;;;27.50;1.00;;;;;;5178168;28;20050;-62
2023/08/17 08:29:28;;;;;;;4.63;4.23;;;27.50;1.00;;;;;;5171623;28;20030;-66
2023/08/17 08:32:02;;;;;;;5.75;4.75;;;27.60;1.00;;;;;;5176945;28;20029;-64
2023/08/17 08:34:37;;;;;;;5.70;4.20;;;27.40;1.00;;;;;;5180015;28;20383;-62
2023/08/17 08:37:08;;;;;;;5.35;4.60;;;27.40;99.90;;;;;;5193300;28;20037;-64
2023/08/17 08:39:51;;;;;;;4.80;4.25;;;27.30;1.00;;;;;;5177862;28;20037;-64
2023/08/17 08:42:31;;;;;;;4.57;4.18;;;27.00;99.90;;;;;;5173604;28;20029;-61
2023/08/17 08:45:03;;;;;;;5.75;4.30;;;26.60;99.90;;;;;;5174931;28;20077;-64
2023/08/17 08:47:37;;;;;;;4.32;3.88;;;26.40;69.10;;;;;;5162306;28;20394;-62
2023/08/17 08:50:08;;;;;;;;;;;26.40;99.90;;;;;;5194320;28;20041;-65
2023/08/17 08:52:52;;;;;;;7.10;4.50;;;26.50;99.90;;;;;;5146745;28;19909;-65
2023/08/17 08:55:30;;;;;;;4.75;4.18;;;26.60;99.90;;;;;;5185998;28;20041;-61
2023/08/17 08:58:07;;;;;;;7.45;4.28;;;26.50;99.90;;;;;;5174750;28;20212;-64
2023/08/17 09:00:39;;;;;;;4.55;4.07;;;26.60;99.90;;;;;;5155170;28;20199;-63
2023/08/17 09:03:14;;;;;;;5.38;3.88;;;26.40;99.90;;;;;;5163367;28;20052;-63
2023/08/17 09:05:52;;;;;;;4.15;3.75;;;26.30;99.90;;;;;;5186485;28;20038;-64
2023/08/17 09:08:32;;;;;;;6.20;4.10;;;26.90;99.90;;;;;;5168986;28;20038;-64
2023/08/17 09:11:03;;;;;;;5.95;3.90;;;27.60;99.90;;;;;;5146415;28;20052;-62
2023/08/17 09:13:35;;;;;;;5.10;4.60;;;28.10;99.90;;;;;;5164285;28;20050;-64
2023/08/17 09:16:07;;;;;;;4.97;3.83;;;28.50;90.00;;;;;;5159411;28;20488;-62
2023/08/17 09:18:41;;;;;;;7.07;3.45;;;28.80;16.70;;;;;;5179603;28;20034;-61
2023/08/17 09:21:26;;;;;;;;;;;29.40;99.90;;;;;;5163944;28;20041;-63
2023/08/17 09:24:01;;;;;;;6.30;3.17;;;29.90;99.90;;;;;;5179363;28;19919;-65
2023/08/17 09:26:34;;;;;;;3.13;2.70;;;29.80;1.00;;;;;;5146090;28;20025;-64
2023/08/17 09:29:26;;;;;;;4.32;3.22;;;29.80;1.00;;;;;;5182792;28;20033;-61
2023/08/17 09:32:00;;;;;;;4.22;3.75;;;30.30;99.90;;;;;;5178317;28;20295;-63
2023/08/17 09:34:37;;;;;;;3.95;2.95;;;30.50;99.90;;;;;;5163277;28;20056;-65
2023/08/17 09:37:08;;;;;;;3.42;2.65;;;30.80;99.90;;;;;;5174587;28;20042;-63
2023/08/17 09:39:43;;;;;;;3.25;2.95;;;31.10;99.90;;;;;;5186350;28;20318;-63
2023/08/17 09:42:17;;;;;;;4.22;3.10;;;31.30;99.90;;;;;;5185173;28;20033;-64
2023/08/17 09:44:56;;;;;;;3.17;2.78;;;31.50;99.00;;;;;;5162454;28;20559;-64
2023/08/17 09:47:31;;;;;;;3.13;2.67;;;31.70;99.90;;;;;;5159347;28;20045;-63
2023/08/17 09:50:07;;;;;;;4.18;3.08;;;31.80;17.00;;;;;;5131865;28;20431;-61
2023/08/17 09:52:42;;;;;;;3.92;3.38;;;31.30;53.50;;;;;;5175724;28;20531;-63
2023/08/17 09:55:14;;;;;;;3.05;2.67;;;31.70;99.90;;;;;;5165574;28;20045;-64
2023/08/17 09:57:49;;;;;;;3.35;3.05;;;32.70;1.00;;;;;;5151088;28;20040;-65
2023/08/17 10:00:30;;;;;;;3.90;3.10;;;33.20;1.00;;;;;;5178223;28;20032;-67
2023/08/17 10:03:04;;;;;;;3.72;3.22;;;32.90;1.00;;;;;;5189674;28;20046;-65
2023/08/17 10:05:39;;;;;;;3.95;3.55;;;33.10;1.00;;;;;;5144705;28;20046;-61
2023/08/17 10:08:12;;;;;;;6.05;3.10;;;33.50;1.00;;;;;;5175328;28;20224;-64
2023/08/17 10:10:47;;;;;;;2.90;2.60;;;33.70;1.00;;;;;;5165129;28;20065;-64
2023/08/17 10:13:45;;;;;;;3.35;2.67;;;32.90;1.00;;;;;;5162460;28;20267;-62
2023/08/17 10:16:45;;;;;;;4.65;2.83;;;32.80;1.00;;;;;;5172087;28;20050;-62
2023/08/17 10:19:48;;;;;;;3.67;2.70;;;32.70;1.00;;;;;;5157192;28;20046;-65
2023/08/17 10:22:47;;;;;;;2.92;2.63;;;32.40;1.00;;;;;;5148683;28;20044;-64
2023/08/17 10:25:21;;;;;;;3.20;2.88;;;32.90;1.00;;;;;;5176335;28;20233;-65
2023/08/17 10:27:54;;;;;;;3.65;2.90;;;33.90;1.00;;;;;;5199682;28;20378;-63
2023/08/17 10:30:29;;;;;;;5.40;2.45;;;34.70;1.00;;;;;;5144926;28;20037;-64
2023/08/17 10:33:09;;;;;;;4.03;2.95;;;33.60;1.00;;;;;;5140755;28;20048;-63
2023/08/17 10:35:45;;;;;;;3.15;2.55;;;34.40;1.00;;;;;;5163913;28;20499;-65
2023/08/17 10:38:19;;;;;;;4.35;3.25;;;35.70;1.00;;;;;;5161057;28;20038;-63
2023/08/17 10:41:16;;;;;;;3.08;2.80;;;36.60;1.00;;;;;;5164171;28;20506;-65
2023/08/17 10:44:00;;;;;;;3.20;2.92;;;37.10;99.90;;;;;;5164367;28;20299;-62
2023/08/17 10:46:37;;;;;;;3.40;2.60;;;37.80;99.90;;;;;;5160963;28;20430;-63
2023/08/17 10:49:28;;;;;;;4.57;2.75;;;37.40;99.90;;;;;;5163455;28;20044;-64
2023/08/17 10:52:04;;;;;;;3.65;3.00;;;36.40;13.40;;;;;;5163747;28;20045;-64
2023/08/17 10:54:45;;;;;;;3.10;2.80;;;36.70;92.70;;;;;;5181598;28;20049;-62
2023/08/17 10:57:35;;;;;;;12.90;3.05;;;37.70;99.90;;;;;;5175135;28;20767;-64
2023/08/17 11:00:34;;;;;;;3.50;2.30;;;37.90;84.80;;;;;;5159186;28;20038;-65
2023/08/17 11:03:10;;;;;;;2.97;2.60;;;39.10;99.90;;;;;;5163829;28;20042;-66
2023/08/17 11:05:42;;;;;;;3.55;2.80;;;39.90;58.60;;;;;;5147791;28;20343;-63
2023/08/17 11:08:32;;;;;;;2.60;2.40;;;40.00;1.00;;;;;;5166617;28;20048;-64
2023/08/17 11:11:06;;;;;;;4.03;2.50;;;40.00;28.70;;;;;;5160167;28;20264;-65
2023/08/17 11:13:40;;;;;;;2.80;2.60;;;40.20;3.10;;;;;;5147218;28;20042;-65
2023/08/17 11:16:13;;;;;;;3.42;2.60;;;40.30;99.90;;;;;;5174949;28;20042;-63
2023/08/17 11:18:52;;;;;;;3.10;2.80;;;40.10;16.10;;;;;;5173238;28;20045;-65
2023/08/17 11:21:27;;;;;;;4.13;3.08;;;39.80;99.90;;;;;;5177291;28;20350;-64
2023/08/17 11:23:58;;;;;;;4.55;2.95;;;40.00;99.90;;;;;;5165281;28;20048;-66
2023/08/17 11:26:32;;;;;;;2.53;2.33;;;40.50;99.90;;;;;;5181259;28;20464;-65
2023/08/17 11:29:09;;;;;;;3.47;3.17;;;40.70;99.90;;;;;;5164955;28;20045;-64
2023/08/17 11:31:41;;;;;;;3.22;2.92;;;41.30;99.90;;;;;;5191080;28;20034;-64
2023/08/17 11:34:15;;;;;;;3.30;2.65;;;40.40;99.90;;;;;;5159102;28;20037;-64
2023/08/17 11:36:49;;;;;;;2.92;2.70;;;40.60;99.90;;;;;;5144893;28;20366;-63
2023/08/17 11:39:21;;;;;;;3.08;2.63;;;41.20;99.90;;;;;;5146754;28;20041;-65
2023/08/17 11:41:52;;;;;;;2.90;2.70;;;40.80;99.90;;;;;;5163291;28;20050;-64
2023/08/17 11:44:29;;;;;;;2.88;2.58;;;41.30;99.90;;;;;;5179489;28;20037;-65
2023/08/17 11:47:02;;;;;;;2.63;2.42;;;41.20;99.90;;;;;;5140324;28;20049;-62
2023/08/17 11:49:34;;;;;;;3.00;2.70;;;41.80;99.90;;;;;;5160182;28;20465;-64
2023/08/17 11:52:09;;;;;;;2.80;2.60;;;43.10;99.90;;;;;;5164481;28;20515;-64
2023/08/17 11:54:48;;;;;;;3.53;2.50;;;43.60;99.90;;;;;;5156687;28;20046;-64
2023/08/17 11:57:20;;;;;;;3.65;3.08;;;42.90;99.90;;;;;;5178211;28;20051;-64
2023/08/17 11:59:59;;;;;;;3.20;2.92;;;43.70;99.90;;;;;;5141945;28;20046;-66
2023/08/17 12:02:37;;;;;;;3.35;2.90;;;43.70;99.90;;;;;;5171819;28;20029;-64
2023/08/17 12:05:14;;;;;;;3.40;3.13;;;42.70;99.90;;;;;;5164086;28;20036;-65
2023/08/17 12:07:46;;;;;;;4.88;3.33;;;43.10;99.90;;;;;;5160432;28;20038;-63
2023/08/17 12:10:19;;;;;;;3.42;2.85;;;42.50;99.90;;;;;;5181000;28;20059;-63
2023/08/17 12:12:57;;;;;;;3.80;3.08;;;42.40;99.90;;;;;;5180959;28;20071;-66
2023/08/17 12:15:35;;;;;;;3.80;3.40;;;41.90;99.90;;;;;;5139494;28;20037;-64
2023/08/17 12:18:10;;;;;;;3.72;3.10;;;40.50;99.90;;;;;;5173856;28;20037;-63
2023/08/17 12:20:52;;;;;;;3.60;3.30;;;39.30;99.90;;;;;;5163617;28;20047;-64
2023/08/17 12:23:24;;;;;;;4.07;3.00;;;38.30;99.90;;;;;;5145899;28;20038;-65
2023/08/17 12:25:56;;;;;;;3.63;3.33;;;37.50;99.90;;;;;;5181251;28;20026;-66
2023/08/17 12:28:27;;;;;;;3.83;3.17;;;36.60;99.90;;;;;;5172191;28;20050;-64
2023/08/17 12:31:06;;;;;;;3.40;3.10;;;35.80;99.90;;;;;;5172852;28;20080;-63
2023/08/17 12:33:37;;;;;;;4.03;3.53;;;35.50;99.90;;;;;;5161974;28;20038;-63
2023/08/17 12:36:09;;;;;;;4.18;3.42;;;34.80;99.90;;;;;;5176513;28;20022;-65
2023/08/17 12:38:44;;;;;;;4.43;3.85;;;34.40;92.30;;;;;;5192178;28;20030;-65
2023/08/17 12:41:20;;;;;;;5.07;3.45;;;33.70;8.10;;;;;;5164061;28;20046;-65
2023/08/17 12:43:53;;;;;;;5.82;3.78;;;33.50;1.00;;;;;;5161568;28;20060;-66
2023/08/17 12:46:32;;;;;;;3.67;3.30;;;33.10;1.00;;;;;;5160990;28;20037;-66
2023/08/17 12:49:04;;;;;;;5.43;3.83;;;32.90;1.00;;;;;;5164787;28;20042;-62
2023/08/17 12:51:37;;;;;;;4.97;3.42;;;32.80;1.00;;;;;;5161767;28;20052;-66
2023/08/17 12:54:12;;;;;;;4.82;3.38;;;32.30;1.00;;;;;;5144420;28;20331;-61
2023/08/17 12:56:46;;;;;;;3.83;2.95;;;31.80;1.00;;;;;;5163174;28;20040;-65
2023/08/17 12:59:20;;;;;;;3.35;3.05;;;31.70;1.00;;;;;;5144691;28;20476;-65
2023/08/17 13:01:51;;;;;;;8.25;4.05;;;32.00;1.00;;;;;;5154732;28;20049;-64
2023/08/17 13:04:23;;;;;;;3.65;2.95;;;32.40;1.00;;;;;;5160441;28;20045;-66
2023/08/17 13:06:55;;;;;;;5.30;2.90;;;33.30;1.00;;;;;;5180911;28;20346;-63
2023/08/17 13:09:26;;;;;;;3.88;3.45;;;34.10;1.00;;;;;;5184522;28;20041;-65
2023/08/17 13:12:03;;;;;;;4.28;3.28;;;33.90;1.00;;;;;;5162696;28;20038;-65
2023/08/17 13:14:34;;;;;;;3.65;3.10;;;33.70;1.00;;;;;;5166348;28;20037;-65
2023/08/17 13:17:09;;;;;;;4.30;3.28;;;33.20;1.00;;;;;;5147090;28;20056;-64
2023/08/17 13:19:44;;;;;;;3.40;3.10;;;32.90;1.00;;;;;;5166643;28;20030;-65
2023/08/17 13:22:16;;;;;;;3.70;3.28;;;32.80;1.00;;;;;;5153680;28;20037;-66
2023/08/17 13:24:51;;;;;;;6.85;3.28;;;33.30;1.00;;;;;;5165789;28;20040;-64
2023/08/17 13:27:27;;;;;;;3.33;3.03;;;32.90;1.00;;;;;;5165451;28;20029;-66
2023/08/17 13:30:01;;;;;;;4.22;3.30;;;33.20;1.00;;;;;;5164363;28;20050;-66
2023/08/17 13:32:35;;;;;;;4.20;2.90;;;34.30;1.00;;;;;;5165366;28;20060;-65